KAST/AST METAR and TAF weather

Enter ICAO airport designator
Station Type Date Time Source
KAST METAR 2018/09/21 22:55 UTC NOAA

KAST 212255Z AUTO 23011KT 10SM CLR 18/11 A2992 RMK AO2 SLP131 T01830106


Station Type Date Time Source
KAST Decoded METAR 2018/09/21 22:55 UTC NOAA

PORT OF ASTORIA AIRPORT, OR, United States (KAST) 46-09N 123-53W 3M
Sep 21, 2018 - 06:55 PM EDT / 2018.09.21 2255 UTC
Wind: from the SW (230 degrees) at 13 MPH (11 KT):0
Visibility: 10 mile(s):0
Sky conditions: clear
Temperature: 64.9 F (18.3 C)
Dew Point: 51.1 F (10.6 C)
Relative Humidity: 60%
Pressure (altimeter): 29.92 in. Hg (1013 hPa)
ob: KAST 212255Z AUTO 23011KT 10SM CLR 18/11 A2992 RMK AO2 SLP131 T01830106
cycle: 23

Station Type Date Time Source
KAST TAF 2018/09/21 20:03 UTC NOAA

TAF
AMD KAST 212000Z 2120/2218 22006KT P6SM SCT040 OVC080
FM220000 21012G19KT P6SM SCT020 OVC040
FM220200 21012G20KT 5SM -RA BR BKN015 OVC025
FM220800 23013G21KT P6SM -SHRA SCT015 BKN025 OVC060


Example: see airport list